createdAt,value
2022-11-14T00:00:02.437Z,1019.50
2022-11-14T00:01:02.443Z,1019.49
2022-11-14T00:02:02.435Z,1019.41
2022-11-14T00:03:02.506Z,1019.42
2022-11-14T00:04:02.462Z,1019.41
2022-11-14T00:05:02.474Z,1019.42
2022-11-14T00:06:02.375Z,1019.38
2022-11-14T00:07:02.423Z,1019.39
2022-11-14T00:08:02.489Z,1019.42
2022-11-14T00:09:02.392Z,1019.42
2022-11-14T00:10:02.403Z,1019.43
2022-11-14T00:11:02.349Z,1019.45
2022-11-14T00:12:02.325Z,1019.41
2022-11-14T00:13:02.286Z,1019.39
2022-11-14T00:14:02.291Z,1019.40
2022-11-14T00:15:02.315Z,1019.37
2022-11-14T00:16:02.360Z,1019.36
2022-11-14T00:17:02.246Z,1019.36
2022-11-14T00:18:02.239Z,1019.36
2022-11-14T00:19:02.236Z,1019.30
2022-11-14T00:20:02.234Z,1019.30
2022-11-14T00:21:02.206Z,1019.30
2022-11-14T00:22:02.198Z,1019.30
2022-11-14T00:23:02.187Z,1019.28
2022-11-14T00:24:02.521Z,1019.25
2022-11-14T00:25:02.159Z,1019.25
2022-11-14T00:26:02.164Z,1019.21
2022-11-14T00:27:02.147Z,1019.20
2022-11-14T00:28:02.223Z,1019.14
2022-11-14T00:29:02.174Z,1019.23
2022-11-14T00:30:02.145Z,1019.24
2022-11-14T00:31:02.107Z,1019.25
2022-11-14T00:32:02.103Z,1019.22
2022-11-14T00:33:02.082Z,1019.20
2022-11-14T00:34:02.126Z,1019.17
2022-11-14T00:35:02.070Z,1019.14
2022-11-14T00:36:02.081Z,1019.13
2022-11-14T00:37:02.064Z,1019.14
2022-11-14T00:38:02.071Z,1019.11
2022-11-14T00:39:02.027Z,1019.12
2022-11-14T00:40:02.003Z,1019.12
2022-11-14T00:41:01.991Z,1019.10
2022-11-14T00:42:02.001Z,1019.09
2022-11-14T00:43:01.986Z,1019.12
2022-11-14T00:44:02.032Z,1019.11
2022-11-14T00:45:01.957Z,1019.10
2022-11-14T00:46:01.945Z,1019.08
2022-11-14T00:47:01.930Z,1019.07
2022-11-14T00:48:01.926Z,1019.06
2022-11-14T00:49:01.924Z,1019.08
2022-11-14T00:50:01.980Z,1019.00
2022-11-14T00:51:01.890Z,1019.01
2022-11-14T00:52:01.880Z,1018.99
2022-11-14T00:53:01.869Z,1018.98
2022-11-14T00:54:01.894Z,1018.98
2022-11-14T00:55:01.962Z,1018.98
2022-11-14T00:56:01.840Z,1018.96
2022-11-14T00:57:01.823Z,1018.95
2022-11-14T00:58:01.819Z,1018.95
2022-11-14T00:59:01.812Z,1018.93
2022-11-14T01:00:01.807Z,1018.88
2022-11-14T01:01:01.990Z,1018.88
2022-11-14T01:02:01.829Z,1018.88
2022-11-14T01:03:01.822Z,1018.87
2022-11-14T01:04:01.760Z,1018.84
2022-11-14T01:05:01.742Z,1018.82
2022-11-14T01:06:01.740Z,1018.82
2022-11-14T01:07:01.762Z,1018.82
2022-11-14T01:08:01.743Z,1018.80
2022-11-14T01:09:01.781Z,1018.80
2022-11-14T01:10:01.699Z,1018.80
2022-11-14T01:11:07.808Z,1018.81
2022-11-14T01:12:01.823Z,1018.81
2022-11-14T01:13:01.677Z,1018.82
2022-11-14T01:14:02.365Z,1018.77
2022-11-14T01:15:01.680Z,1018.78
2022-11-14T01:16:01.691Z,1018.77
2022-11-14T01:17:01.616Z,1018.79
2022-11-14T01:18:01.645Z,1018.76
2022-11-14T01:19:01.594Z,1018.71
2022-11-14T01:20:01.603Z,1018.70
2022-11-14T01:21:01.589Z,1018.72
2022-11-14T01:22:05.929Z,1018.72
2022-11-14T01:23:01.577Z,1018.66
2022-11-14T01:24:01.557Z,1018.65
2022-11-14T01:25:01.557Z,1018.62
2022-11-14T01:26:01.531Z,1018.64
2022-11-14T01:27:01.535Z,1018.65
2022-11-14T01:28:01.537Z,1018.63
2022-11-14T01:29:01.497Z,1018.56
2022-11-14T01:30:01.489Z,1018.55
2022-11-14T01:31:01.509Z,1018.55
2022-11-14T01:32:01.488Z,1018.55
2022-11-14T01:33:01.464Z,1018.57
2022-11-14T01:34:01.463Z,1018.58
2022-11-14T01:35:01.438Z,1018.54
2022-11-14T01:36:01.425Z,1018.49
2022-11-14T01:37:01.439Z,1018.47
2022-11-14T01:38:01.436Z,1018.45
2022-11-14T01:39:01.400Z,1018.46
2022-11-14T01:40:01.386Z,1018.44
2022-11-14T01:41:01.365Z,1018.45
2022-11-14T01:42:01.360Z,1018.45
2022-11-14T01:43:01.369Z,1018.41
2022-11-14T01:44:01.376Z,1018.41
2022-11-14T01:45:01.327Z,1018.40
2022-11-14T01:46:01.323Z,1018.39
2022-11-14T01:47:01.311Z,1018.37
2022-11-14T01:48:01.336Z,1018.37
2022-11-14T01:49:01.316Z,1018.35
2022-11-14T01:50:01.274Z,1018.33
2022-11-14T01:51:01.274Z,1018.34
2022-11-14T01:52:01.282Z,1018.33
2022-11-14T01:53:01.262Z,1018.34
2022-11-14T01:54:01.262Z,1018.32
2022-11-14T01:55:01.236Z,1018.27
2022-11-14T01:56:01.214Z,1018.26
2022-11-14T01:57:01.204Z,1018.28
2022-11-14T01:58:01.205Z,1018.29
2022-11-14T01:59:01.177Z,1018.27
2022-11-14T02:00:01.188Z,1018.25
2022-11-14T02:01:01.254Z,1018.24
2022-11-14T02:02:01.157Z,1018.23
2022-11-14T02:03:01.153Z,1018.23
2022-11-14T02:04:02.016Z,1018.23
2022-11-14T02:05:01.139Z,1018.21
2022-11-14T02:06:01.111Z,1018.18
2022-11-14T02:07:01.199Z,1018.18
2022-11-14T02:08:01.106Z,1018.16
2022-11-14T02:09:01.140Z,1018.15
2022-11-14T02:10:01.090Z,1018.16
2022-11-14T02:11:01.054Z,1018.16
2022-11-14T02:12:01.076Z,1018.12
2022-11-14T02:13:01.049Z,1018.12
2022-11-14T02:14:01.053Z,1018.10
2022-11-14T02:15:01.071Z,1018.07
2022-11-14T02:16:01.017Z,1018.07
2022-11-14T02:17:27.989Z,1018.04
2022-11-14T02:18:01.042Z,1018.05
2022-11-14T02:19:01.004Z,1017.97
2022-11-14T02:20:05.094Z,1017.97
2022-11-14T02:21:01.012Z,1017.99
2022-11-14T02:22:01.002Z,1017.95
2022-11-14T02:23:00.966Z,1017.97
2022-11-14T02:24:00.925Z,1017.96
2022-11-14T02:25:00.924Z,1017.95
2022-11-14T02:26:00.912Z,1017.91
2022-11-14T02:27:00.911Z,1017.93
2022-11-14T02:28:00.964Z,1017.92
2022-11-14T02:29:00.947Z,1017.91
2022-11-14T02:30:00.908Z,1017.90
2022-11-14T02:31:00.847Z,1017.90
2022-11-14T02:32:00.892Z,1017.91
2022-11-14T02:33:16.314Z,1017.91
2022-11-14T02:34:00.898Z,1017.88
2022-11-14T02:35:00.812Z,1017.88
2022-11-14T02:36:00.803Z,1017.85
2022-11-14T02:37:00.813Z,1017.84
2022-11-14T02:38:00.795Z,1017.80
2022-11-14T02:39:00.831Z,1017.78
2022-11-14T02:40:00.857Z,1017.76
2022-11-14T02:41:00.771Z,1017.73
2022-11-14T02:42:00.859Z,1017.72
2022-11-14T02:43:00.892Z,1017.71
2022-11-14T02:44:00.716Z,1017.67
2022-11-14T02:45:00.709Z,1017.69
2022-11-14T02:46:05.351Z,1017.67
2022-11-14T02:47:00.782Z,1017.65
2022-11-14T02:48:00.689Z,1017.64
2022-11-14T02:49:00.699Z,1017.64
2022-11-14T02:50:00.703Z,1017.64
2022-11-14T02:51:00.638Z,1017.67
2022-11-14T02:52:00.669Z,1017.66
2022-11-14T02:53:00.652Z,1017.65
2022-11-14T02:54:00.654Z,1017.62
2022-11-14T02:55:00.632Z,1017.64
2022-11-14T02:56:00.645Z,1017.61
2022-11-14T02:57:00.584Z,1017.58
2022-11-14T02:58:00.643Z,1017.59
2022-11-14T02:59:00.611Z,1017.59
2022-11-14T03:00:00.671Z,1017.58
2022-11-14T03:01:19.580Z,1017.60
2022-11-14T03:02:00.642Z,1017.59
2022-11-14T03:03:00.533Z,1017.58
2022-11-14T03:04:00.577Z,1017.57
2022-11-14T03:05:00.582Z,1017.53
2022-11-14T03:06:00.558Z,1017.52
2022-11-14T03:07:00.599Z,1017.53
2022-11-14T03:08:00.465Z,1017.51
2022-11-14T03:09:00.561Z,1017.49
2022-11-14T03:10:00.538Z,1017.46
2022-11-14T03:11:00.480Z,1017.47
2022-11-14T03:12:00.532Z,1017.48
2022-11-14T03:13:00.449Z,1017.44
2022-11-14T03:14:00.398Z,1017.45
2022-11-14T03:15:00.387Z,1017.42
2022-11-14T03:16:00.404Z,1017.47
2022-11-14T03:17:00.458Z,1017.44
2022-11-14T03:18:00.384Z,1017.43
2022-11-14T03:19:00.385Z,1017.39
2022-11-14T03:20:00.342Z,1017.38
2022-11-14T03:21:00.390Z,1017.38
2022-11-14T03:22:00.520Z,1017.38
2022-11-14T03:23:00.323Z,1017.37
2022-11-14T03:24:00.326Z,1017.36
2022-11-14T03:25:00.348Z,1017.37
2022-11-14T03:26:00.355Z,1017.36
2022-11-14T03:27:00.427Z,1017.35
2022-11-14T03:28:00.262Z,1017.33
2022-11-14T03:29:00.249Z,1017.36
2022-11-14T03:30:00.383Z,1017.35
2022-11-14T03:31:00.268Z,1017.36
2022-11-14T03:32:00.267Z,1017.43
2022-11-14T03:33:00.279Z,1017.38
2022-11-14T03:34:00.187Z,1017.36
2022-11-14T03:35:00.203Z,1017.35
2022-11-14T03:36:00.194Z,1017.36
2022-11-14T03:37:00.170Z,1017.34
2022-11-14T03:38:00.217Z,1017.31
2022-11-14T03:39:00.194Z,1017.29
2022-11-14T03:40:00.178Z,1017.25
2022-11-14T03:41:00.141Z,1017.23
2022-11-14T03:42:00.239Z,1017.19
2022-11-14T03:43:00.135Z,1017.19
2022-11-14T03:44:00.131Z,1017.18
2022-11-14T03:45:00.120Z,1017.13
2022-11-14T03:46:00.070Z,1017.15
2022-11-14T03:47:00.124Z,1017.10
2022-11-14T03:48:00.045Z,1017.10
2022-11-14T03:49:00.172Z,1017.11
2022-11-14T03:50:00.080Z,1017.08
2022-11-14T03:51:00.010Z,1017.08
2022-11-14T03:52:00.100Z,1017.09
2022-11-14T03:52:59.990Z,1017.09
2022-11-14T03:54:00.009Z,1017.08
2022-11-14T03:55:00.004Z,1017.08
2022-11-14T03:55:59.958Z,1017.07
2022-11-14T03:56:59.962Z,1017.08
2022-11-14T03:57:59.963Z,1017.04
2022-11-14T03:59:00.001Z,1017.05
2022-11-14T03:59:59.949Z,1017.07
2022-11-14T04:00:59.978Z,1017.10
2022-11-14T04:02:00.025Z,1017.08
2022-11-14T04:02:59.969Z,1017.08
2022-11-14T04:03:59.878Z,1017.07
2022-11-14T04:04:59.889Z,1017.06
2022-11-14T04:05:59.861Z,1017.05
2022-11-14T04:06:59.928Z,1017.05
2022-11-14T04:07:59.920Z,1017.05
2022-11-14T04:08:59.827Z,1017.04
2022-11-14T04:09:59.834Z,1017.01
2022-11-14T04:10:59.825Z,1016.99
2022-11-14T04:11:59.826Z,1016.99
2022-11-14T04:12:59.785Z,1016.96
2022-11-14T04:13:59.781Z,1017.00
2022-11-14T04:14:59.792Z,1016.95
2022-11-14T04:15:59.758Z,1016.98
2022-11-14T04:16:59.781Z,1016.93
2022-11-14T04:17:59.741Z,1016.93
2022-11-14T04:18:59.748Z,1016.92
2022-11-14T04:19:59.721Z,1016.90
2022-11-14T04:20:59.750Z,1016.89
2022-11-14T04:21:59.743Z,1016.86
2022-11-14T04:22:59.689Z,1016.88
2022-11-14T04:23:59.686Z,1016.87
2022-11-14T04:24:59.685Z,1016.85
2022-11-14T04:25:59.703Z,1016.82
2022-11-14T04:26:59.656Z,1016.84
2022-11-14T04:27:59.635Z,1016.81
2022-11-14T04:28:59.679Z,1016.85
2022-11-14T04:29:59.608Z,1016.84
2022-11-14T04:30:59.611Z,1016.86
2022-11-14T04:31:59.607Z,1016.88
2022-11-14T04:32:59.589Z,1016.84
2022-11-14T04:33:59.567Z,1016.85
2022-11-14T04:34:59.592Z,1016.85
2022-11-14T04:35:59.548Z,1016.81
2022-11-14T04:36:59.556Z,1016.85
2022-11-14T04:37:59.550Z,1016.83
2022-11-14T04:38:59.525Z,1016.79
2022-11-14T04:39:59.503Z,1016.77
2022-11-14T04:40:59.550Z,1016.77
2022-11-14T04:41:59.491Z,1016.71
2022-11-14T04:42:59.481Z,1016.69
2022-11-14T04:43:59.508Z,1016.69
2022-11-14T04:44:59.483Z,1016.66
2022-11-14T04:45:59.446Z,1016.66
2022-11-14T04:46:59.453Z,1016.71
2022-11-14T04:47:59.438Z,1016.71
2022-11-14T04:48:59.418Z,1016.71
2022-11-14T04:49:59.396Z,1016.75
2022-11-14T04:50:59.427Z,1016.74
2022-11-14T04:51:59.396Z,1016.74
2022-11-14T04:52:59.403Z,1016.72
2022-11-14T04:53:59.359Z,1016.74
2022-11-14T04:54:59.346Z,1016.75
2022-11-14T04:55:59.346Z,1016.76
2022-11-14T04:56:59.346Z,1016.77
2022-11-14T04:57:59.308Z,1016.73
2022-11-14T04:58:59.305Z,1016.73
2022-11-14T04:59:59.303Z,1016.72
2022-11-14T05:00:59.351Z,1016.70
2022-11-14T05:01:59.293Z,1016.69
2022-11-14T05:02:59.268Z,1016.67
2022-11-14T05:03:59.247Z,1016.69
2022-11-14T05:04:59.244Z,1016.69
2022-11-14T05:05:59.237Z,1016.70
2022-11-14T05:06:59.326Z,1016.67
2022-11-14T05:07:59.208Z,1016.65
2022-11-14T05:08:59.207Z,1016.64
2022-11-14T05:09:59.221Z,1016.64
2022-11-14T05:10:59.213Z,1016.63
2022-11-14T05:11:59.169Z,1016.70
2022-11-14T05:12:59.164Z,1016.65
2022-11-14T05:13:59.146Z,1016.66
2022-11-14T05:14:59.148Z,1016.65
2022-11-14T05:15:59.143Z,1016.65
2022-11-14T05:16:59.130Z,1016.61
2022-11-14T05:17:59.134Z,1016.62
2022-11-14T05:18:59.098Z,1016.64
2022-11-14T05:19:59.089Z,1016.65
2022-11-14T05:20:59.091Z,1016.64
2022-11-14T05:21:59.060Z,1016.63
2022-11-14T05:22:59.122Z,1016.63
2022-11-14T05:23:59.050Z,1016.62
2022-11-14T05:24:59.054Z,1016.61
2022-11-14T05:25:59.043Z,1016.63
2022-11-14T05:26:59.076Z,1016.63
2022-11-14T05:27:59.000Z,1016.61
2022-11-14T05:28:59.089Z,1016.58
2022-11-14T05:29:59.055Z,1016.60
2022-11-14T05:30:58.982Z,1016.59
2022-11-14T05:31:59.006Z,1016.62
2022-11-14T05:32:58.971Z,1016.62
2022-11-14T05:33:58.958Z,1016.58
2022-11-14T05:34:58.933Z,1016.63
2022-11-14T05:35:58.936Z,1016.64
2022-11-14T05:36:58.967Z,1016.60
2022-11-14T05:38:00.132Z,1016.59
2022-11-14T05:38:58.950Z,1016.58
2022-11-14T05:39:58.881Z,1016.54
2022-11-14T05:40:58.891Z,1016.56
2022-11-14T05:41:59.004Z,1016.60
2022-11-14T05:42:58.903Z,1016.57
2022-11-14T05:43:58.850Z,1016.58
2022-11-14T05:44:58.873Z,1016.57
2022-11-14T05:45:58.880Z,1016.60
2022-11-14T05:46:58.900Z,1016.58
2022-11-14T05:47:58.837Z,1016.60
2022-11-14T05:48:58.814Z,1016.60
2022-11-14T05:49:58.770Z,1016.58
2022-11-14T05:50:58.940Z,1016.59
2022-11-14T05:51:58.744Z,1016.58
2022-11-14T05:52:58.839Z,1016.60
2022-11-14T05:53:58.735Z,1016.54
2022-11-14T05:54:58.842Z,1016.54
2022-11-14T05:55:58.762Z,1016.53
2022-11-14T05:56:58.732Z,1016.51
2022-11-14T05:57:58.643Z,1016.51
2022-11-14T05:58:58.649Z,1016.47
2022-11-14T05:59:58.673Z,1016.49
2022-11-14T06:00:58.684Z,1016.47
2022-11-14T06:01:58.707Z,1016.46
2022-11-14T06:02:58.621Z,1016.43
2022-11-14T06:03:58.578Z,1016.43
2022-11-14T06:04:58.575Z,1016.44
2022-11-14T06:05:58.601Z,1016.43
2022-11-14T06:06:58.752Z,1016.40
2022-11-14T06:07:58.532Z,1016.42
2022-11-14T06:08:58.636Z,1016.42
2022-11-14T06:09:58.529Z,1016.41
2022-11-14T06:10:58.532Z,1016.42
2022-11-14T06:11:58.541Z,1016.38
2022-11-14T06:12:58.670Z,1016.35
2022-11-14T06:13:58.569Z,1016.35
2022-11-14T06:14:58.465Z,1016.37
2022-11-14T06:15:58.564Z,1016.34
2022-11-14T06:16:58.507Z,1016.34
2022-11-14T06:17:58.624Z,1016.34
2022-11-14T06:18:58.483Z,1016.36
2022-11-14T06:19:58.410Z,1016.36
2022-11-14T06:20:58.434Z,1016.35
2022-11-14T06:21:58.543Z,1016.34
2022-11-14T06:22:58.408Z,1016.36
2022-11-14T06:23:58.446Z,1016.37
2022-11-14T06:24:58.365Z,1016.37
2022-11-14T06:25:58.427Z,1016.38
2022-11-14T06:26:58.375Z,1016.39
2022-11-14T06:27:58.327Z,1016.44
2022-11-14T06:28:58.317Z,1016.46
2022-11-14T06:29:58.323Z,1016.44
2022-11-14T06:30:58.319Z,1016.43
2022-11-14T06:31:58.314Z,1016.40
2022-11-14T06:32:58.280Z,1016.38
2022-11-14T06:33:58.257Z,1016.38
2022-11-14T06:34:58.286Z,1016.34
2022-11-14T06:35:58.261Z,1016.34
2022-11-14T06:36:58.228Z,1016.34
2022-11-14T06:37:58.227Z,1016.33
2022-11-14T06:38:58.226Z,1016.34
2022-11-14T06:39:58.250Z,1016.32
2022-11-14T06:40:58.214Z,1016.38
2022-11-14T06:41:58.176Z,1016.36
2022-11-14T06:42:58.164Z,1016.37
2022-11-14T06:43:58.163Z,1016.39
2022-11-14T06:44:58.174Z,1016.39
2022-11-14T06:45:58.147Z,1016.39
2022-11-14T06:46:58.126Z,1016.42
2022-11-14T06:47:58.114Z,1016.44
2022-11-14T06:48:58.112Z,1016.43
2022-11-14T06:49:58.123Z,1016.41
2022-11-14T06:50:58.215Z,1016.40
2022-11-14T06:51:58.131Z,1016.38
2022-11-14T06:52:58.182Z,1016.41
2022-11-14T06:53:58.058Z,1016.44
2022-11-14T06:54:58.115Z,1016.45
2022-11-14T06:55:58.116Z,1016.44
2022-11-14T06:56:58.079Z,1016.40
2022-11-14T06:57:58.187Z,1016.44
2022-11-14T06:58:58.024Z,1016.48
2022-11-14T06:59:58.006Z,1016.42
2022-11-14T07:00:58.172Z,1016.39
2022-11-14T07:01:58.002Z,1016.39
2022-11-14T07:02:58.036Z,1016.39
2022-11-14T07:03:57.984Z,1016.41
2022-11-14T07:04:58.013Z,1016.45
2022-11-14T07:05:58.072Z,1016.44
2022-11-14T07:06:58.148Z,1016.45
2022-11-14T07:07:58.055Z,1016.43
2022-11-14T07:08:57.943Z,1016.44
2022-11-14T07:09:58.009Z,1016.40
2022-11-14T07:10:57.950Z,1016.41
2022-11-14T07:12:03.937Z,1016.42
2022-11-14T07:12:57.852Z,1016.47
2022-11-14T07:13:58.558Z,1016.50
2022-11-14T07:14:57.852Z,1016.53
2022-11-14T07:15:57.873Z,1016.55
2022-11-14T07:16:57.852Z,1016.55
2022-11-14T07:17:57.800Z,1016.55
2022-11-14T07:18:57.816Z,1016.55
2022-11-14T07:19:57.771Z,1016.59
2022-11-14T07:20:57.792Z,1016.61
2022-11-14T07:21:57.758Z,1016.62
2022-11-14T07:22:57.770Z,1016.51
2022-11-14T07:23:57.742Z,1016.47
2022-11-14T07:24:57.746Z,1016.48
2022-11-14T07:25:57.752Z,1016.49
2022-11-14T07:26:57.742Z,1016.46
2022-11-14T07:27:57.692Z,1016.48
2022-11-14T07:29:02.129Z,1016.45
2022-11-14T07:29:57.736Z,1016.44
2022-11-14T07:30:57.673Z,1016.40
2022-11-14T07:31:57.652Z,1016.39
2022-11-14T07:32:57.656Z,1016.38
2022-11-14T07:33:57.651Z,1016.36
2022-11-14T07:35:01.863Z,1016.38
2022-11-14T07:35:57.633Z,1016.40
2022-11-14T07:36:57.603Z,1016.39
2022-11-14T07:37:57.629Z,1016.38
2022-11-14T07:38:57.582Z,1016.37
2022-11-14T07:39:57.588Z,1016.40
2022-11-14T07:40:59.984Z,1016.40
2022-11-14T07:41:57.589Z,1016.37
2022-11-14T07:42:57.540Z,1016.36
2022-11-14T07:43:57.522Z,1016.35
2022-11-14T07:44:57.523Z,1016.34
2022-11-14T07:45:57.522Z,1016.36
2022-11-14T07:46:57.500Z,1016.32
2022-11-14T07:47:57.492Z,1016.31
2022-11-14T07:48:57.480Z,1016.33
2022-11-14T07:49:57.474Z,1016.35
2022-11-14T07:50:57.475Z,1016.36
2022-11-14T07:51:57.439Z,1016.33
2022-11-14T07:52:57.510Z,1016.34
2022-11-14T07:53:57.426Z,1016.34
2022-11-14T07:54:57.469Z,1016.32
2022-11-14T07:55:57.511Z,1016.28
2022-11-14T07:56:57.415Z,1016.26
2022-11-14T07:57:57.406Z,1016.28
2022-11-14T07:58:57.453Z,1016.25
2022-11-14T07:59:57.364Z,1016.28
2022-11-14T08:00:57.489Z,1016.32
2022-11-14T08:01:57.365Z,1016.35
2022-11-14T08:02:57.375Z,1016.38
2022-11-14T08:03:57.369Z,1016.35
2022-11-14T08:04:57.338Z,1016.35
2022-11-14T08:05:57.319Z,1016.35
2022-11-14T08:06:57.370Z,1016.35
2022-11-14T08:07:57.276Z,1016.31
2022-11-14T08:08:57.281Z,1016.28
2022-11-14T08:09:57.257Z,1016.21
2022-11-14T08:10:57.337Z,1016.23
2022-11-14T08:11:57.228Z,1016.24
2022-11-14T08:13:24.804Z,1016.22
2022-11-14T08:13:57.212Z,1016.22
2022-11-14T08:14:57.223Z,1016.23
2022-11-14T08:15:57.205Z,1016.24
2022-11-14T08:16:57.196Z,1016.22
2022-11-14T08:17:57.171Z,1016.26
2022-11-14T08:18:57.191Z,1016.21
2022-11-14T08:19:57.148Z,1016.20
2022-11-14T08:20:57.209Z,1016.23
2022-11-14T08:21:57.127Z,1016.22
2022-11-14T08:22:57.143Z,1016.23
2022-11-14T08:23:57.110Z,1016.23
2022-11-14T08:24:57.179Z,1016.22
2022-11-14T08:25:57.090Z,1016.18
2022-11-14T08:26:57.144Z,1016.21
2022-11-14T08:27:57.067Z,1016.18
2022-11-14T08:28:57.076Z,1016.22
2022-11-14T08:29:57.055Z,1016.22
2022-11-14T08:30:57.056Z,1016.23
2022-11-14T08:31:59.963Z,1016.23
2022-11-14T08:32:57.012Z,1016.19
2022-11-14T08:33:57.012Z,1016.19
2022-11-14T08:34:56.988Z,1016.19
2022-11-14T08:35:56.991Z,1016.21
2022-11-14T08:36:56.968Z,1016.18
2022-11-14T08:37:56.963Z,1016.15
2022-11-14T08:39:01.620Z,1016.15
2022-11-14T08:39:56.952Z,1016.09
2022-11-14T08:40:56.944Z,1016.11
2022-11-14T08:41:56.922Z,1016.10
2022-11-14T08:42:56.905Z,1016.08
2022-11-14T08:43:56.908Z,1016.09
2022-11-14T08:44:56.886Z,1016.06
2022-11-14T08:46:01.068Z,1016.12
2022-11-14T08:46:56.872Z,1016.06
2022-11-14T08:47:56.882Z,1016.09
2022-11-14T08:48:56.869Z,1016.07
2022-11-14T08:49:56.840Z,1016.08
2022-11-14T08:50:56.881Z,1016.05
2022-11-14T08:51:56.823Z,1016.05
2022-11-14T08:52:56.802Z,1016.04
2022-11-14T08:53:56.797Z,1016.02
2022-11-14T08:54:56.793Z,1016.00
2022-11-14T08:55:56.792Z,1016.05
2022-11-14T08:56:56.772Z,1016.07
2022-11-14T08:57:56.767Z,1015.99
2022-11-14T08:58:56.741Z,1016.01
2022-11-14T08:59:56.739Z,1015.99
2022-11-14T09:00:56.725Z,1015.95
2022-11-14T09:01:56.722Z,1016.00
2022-11-14T09:02:56.789Z,1016.00
2022-11-14T09:03:59.875Z,1015.97
2022-11-14T09:04:56.737Z,1015.96
2022-11-14T09:05:56.684Z,1015.95
2022-11-14T09:06:56.699Z,1015.94
2022-11-14T09:07:56.647Z,1015.97
2022-11-14T09:08:56.640Z,1015.99
2022-11-14T09:09:56.622Z,1015.98
2022-11-14T09:11:00.227Z,1015.95
2022-11-14T09:11:56.614Z,1015.90
2022-11-14T09:12:56.593Z,1015.86
2022-11-14T09:13:56.617Z,1015.87
2022-11-14T09:14:56.570Z,1015.89
2022-11-14T09:15:56.598Z,1015.90
2022-11-14T09:16:56.545Z,1015.91
2022-11-14T09:17:56.566Z,1015.93
2022-11-14T09:18:56.530Z,1015.93
2022-11-14T09:19:56.529Z,1015.90
2022-11-14T09:20:56.515Z,1015.86
2022-11-14T09:21:56.601Z,1015.81
2022-11-14T09:22:56.490Z,1015.79
2022-11-14T09:24:00.652Z,1015.76
2022-11-14T09:24:56.478Z,1015.80
2022-11-14T09:25:56.546Z,1015.78
2022-11-14T09:26:57.280Z,1015.78
2022-11-14T09:27:56.438Z,1015.76
2022-11-14T09:28:56.417Z,1015.75
2022-11-14T09:29:56.514Z,1015.78
2022-11-14T09:30:56.424Z,1015.81
2022-11-14T09:31:56.414Z,1015.80
2022-11-14T09:32:56.380Z,1015.77
2022-11-14T09:33:56.391Z,1015.77
2022-11-14T09:34:56.369Z,1015.74
2022-11-14T09:35:56.464Z,1015.75
2022-11-14T09:36:56.349Z,1015.79
2022-11-14T09:37:56.377Z,1015.79
2022-11-14T09:38:56.311Z,1015.77
2022-11-14T09:39:56.357Z,1015.78
2022-11-14T09:40:56.327Z,1015.79
2022-11-14T09:41:56.327Z,1015.81
2022-11-14T09:42:56.296Z,1015.79
2022-11-14T09:43:56.289Z,1015.83
2022-11-14T09:44:56.271Z,1015.84
2022-11-14T09:45:56.301Z,1015.85
2022-11-14T09:46:56.241Z,1015.84
2022-11-14T09:47:56.347Z,1015.84
2022-11-14T09:48:56.205Z,1015.82
2022-11-14T09:49:56.290Z,1015.82
2022-11-14T09:50:56.244Z,1015.82
2022-11-14T09:51:56.209Z,1015.81
2022-11-14T09:52:56.188Z,1015.81
2022-11-14T09:53:56.160Z,1015.81
2022-11-14T09:54:56.151Z,1015.79
2022-11-14T09:55:56.149Z,1015.80
2022-11-14T09:56:56.128Z,1015.76
2022-11-14T09:57:56.115Z,1015.72
2022-11-14T09:58:56.105Z,1015.66
2022-11-14T09:59:56.094Z,1015.63
2022-11-14T10:00:56.087Z,1015.59
2022-11-14T10:01:56.131Z,1015.59
2022-11-14T10:02:56.096Z,1015.58
2022-11-14T10:03:56.054Z,1015.58
2022-11-14T10:04:56.046Z,1015.54
2022-11-14T10:05:56.058Z,1015.51
2022-11-14T10:06:56.066Z,1015.51
2022-11-14T10:07:56.031Z,1015.49
2022-11-14T10:08:56.010Z,1015.48
2022-11-14T10:09:56.016Z,1015.50
2022-11-14T10:10:55.993Z,1015.44
2022-11-14T10:11:55.999Z,1015.45
2022-11-14T10:12:55.954Z,1015.42
2022-11-14T10:13:55.960Z,1015.37
2022-11-14T10:14:55.954Z,1015.41
2022-11-14T10:15:55.950Z,1015.40
2022-11-14T10:16:55.914Z,1015.33
2022-11-14T10:17:55.916Z,1015.30
2022-11-14T10:18:55.893Z,1015.28
2022-11-14T10:19:55.891Z,1015.29
2022-11-14T10:20:55.888Z,1015.25
2022-11-14T10:21:55.879Z,1015.22
2022-11-14T10:23:01.029Z,1015.19
2022-11-14T10:23:55.883Z,1015.26
2022-11-14T10:24:55.848Z,1015.31
2022-11-14T10:25:55.952Z,1015.29
2022-11-14T10:26:55.822Z,1015.32
2022-11-14T10:27:58.600Z,1015.29
2022-11-14T10:28:55.803Z,1015.28
2022-11-14T10:29:55.787Z,1015.29
2022-11-14T10:30:55.789Z,1015.30
2022-11-14T10:31:55.756Z,1015.31
2022-11-14T10:32:55.751Z,1015.32
2022-11-14T10:33:55.747Z,1015.25
2022-11-14T10:34:55.732Z,1015.24
2022-11-14T10:35:55.735Z,1015.22
2022-11-14T10:36:55.713Z,1015.24
2022-11-14T10:37:55.697Z,1015.27
2022-11-14T10:38:55.679Z,1015.30
2022-11-14T10:39:55.741Z,1015.27
2022-11-14T10:40:55.668Z,1015.28
2022-11-14T10:41:58.819Z,1015.25
2022-11-14T10:42:55.641Z,1015.24
2022-11-14T10:43:55.641Z,1015.22
2022-11-14T10:44:55.619Z,1015.20
2022-11-14T10:45:55.620Z,1015.17
2022-11-14T10:46:55.601Z,1015.16
2022-11-14T10:47:55.593Z,1015.18
2022-11-14T10:49:00.080Z,1015.17
2022-11-14T10:49:55.593Z,1015.14
2022-11-14T10:50:55.587Z,1015.08
2022-11-14T10:51:55.550Z,1015.04
2022-11-14T10:52:55.536Z,1015.06
2022-11-14T10:53:55.546Z,1015.05
2022-11-14T10:54:55.515Z,1015.01
2022-11-14T10:56:04.302Z,1014.98
2022-11-14T10:56:55.495Z,1014.93
2022-11-14T10:57:55.486Z,1014.92
2022-11-14T10:58:55.477Z,1014.93
2022-11-14T10:59:55.463Z,1014.97
2022-11-14T11:00:55.544Z,1014.97
2022-11-14T11:01:55.457Z,1014.94
2022-11-14T11:02:55.425Z,1014.88
2022-11-14T11:03:55.550Z,1014.86
2022-11-14T11:04:55.409Z,1014.87
2022-11-14T11:05:55.437Z,1014.87
2022-11-14T11:06:55.436Z,1014.84
2022-11-14T11:07:55.415Z,1014.89
2022-11-14T11:08:55.438Z,1014.89
2022-11-14T11:09:55.403Z,1014.88
2022-11-14T11:10:55.352Z,1014.85
2022-11-14T11:11:55.331Z,1014.83
2022-11-14T11:12:55.417Z,1014.80
2022-11-14T11:13:55.329Z,1014.76
2022-11-14T11:14:55.301Z,1014.72
2022-11-14T11:15:55.304Z,1014.72
2022-11-14T11:16:55.292Z,1014.77
2022-11-14T11:17:55.289Z,1014.79
2022-11-14T11:18:55.340Z,1014.80
2022-11-14T11:19:55.261Z,1014.76
2022-11-14T11:20:55.351Z,1014.71
2022-11-14T11:21:55.265Z,1014.68
2022-11-14T11:22:58.524Z,1014.67
2022-11-14T11:23:55.242Z,1014.67
2022-11-14T11:24:55.194Z,1014.67
2022-11-14T11:25:55.200Z,1014.68
2022-11-14T11:26:55.226Z,1014.68
2022-11-14T11:27:55.166Z,1014.68
2022-11-14T11:28:55.148Z,1014.65
2022-11-14T11:29:55.147Z,1014.65
2022-11-14T11:30:55.145Z,1014.65
2022-11-14T11:31:55.135Z,1014.61
2022-11-14T11:32:55.150Z,1014.61
2022-11-14T11:33:55.101Z,1014.62
2022-11-14T11:34:55.086Z,1014.58
2022-11-14T11:35:55.103Z,1014.58
2022-11-14T11:36:55.072Z,1014.55
2022-11-14T11:37:55.062Z,1014.52
2022-11-14T11:38:55.046Z,1014.51
2022-11-14T11:39:55.049Z,1014.47
2022-11-14T11:40:55.056Z,1014.45
2022-11-14T11:42:10.994Z,1014.43
2022-11-14T11:43:57.077Z,1014.36
2022-11-14T11:44:54.985Z,1014.33
2022-11-14T11:45:55.043Z,1014.34
2022-11-14T11:46:54.988Z,1014.30
2022-11-14T11:47:54.950Z,1014.26
2022-11-14T11:48:54.941Z,1014.25
2022-11-14T11:49:55.063Z,1014.29
2022-11-14T11:50:54.922Z,1014.24
2022-11-14T11:51:54.934Z,1014.27
2022-11-14T11:52:54.889Z,1014.27
2022-11-14T11:53:54.894Z,1014.25
2022-11-14T11:54:54.896Z,1014.28
2022-11-14T11:55:54.880Z,1014.26
2022-11-14T11:56:54.855Z,1014.25
2022-11-14T11:57:54.856Z,1014.23
2022-11-14T11:58:54.833Z,1014.20
2022-11-14T11:59:54.828Z,1014.15
2022-11-14T12:00:54.824Z,1014.15
2022-11-14T12:01:54.841Z,1014.13
2022-11-14T12:02:54.901Z,1014.11
2022-11-14T12:03:54.847Z,1014.12
2022-11-14T12:04:54.772Z,1014.12
2022-11-14T12:05:54.776Z,1014.15